sensor_id;sensor_type;location;lat;lon;timestamp;pressure;altitude;pressure_sealevel;temperature;humidity
39487;BME280;25173;50.430;18.926;2023-02-14T00:00:26;100024.53;;;7.13;68.95
39487;BME280;25173;50.430;18.926;2023-02-14T00:03:27;100021.25;;;7.18;68.98
39487;BME280;25173;50.430;18.926;2023-02-14T00:06:29;100026.44;;;7.19;68.64
39487;BME280;25173;50.430;18.926;2023-02-14T00:09:31;100019.56;;;7.10;68.15
39487;BME280;25173;50.430;18.926;2023-02-14T00:12:32;100021.81;;;7.00;67.94
39487;BME280;25173;50.430;18.926;2023-02-14T00:15:32;100017.88;;;6.96;68.27
39487;BME280;25173;50.430;18.926;2023-02-14T00:18:33;100010.97;;;7.00;68.80
39487;BME280;25173;50.430;18.926;2023-02-14T00:21:52;100016.41;;;7.07;68.53
39487;BME280;25173;50.430;18.926;2023-02-14T00:24:53;100012.66;;;7.14;68.76
39487;BME280;25173;50.430;18.926;2023-02-14T00:27:53;100019.38;;;7.18;68.98
39487;BME280;25173;50.430;18.926;2023-02-14T00:31:00;100011.00;;;7.26;68.87
39487;BME280;25173;50.430;18.926;2023-02-14T00:34:02;100013.31;;;7.29;68.92
39487;BME280;25173;50.430;18.926;2023-02-14T00:37:03;100013.94;;;7.25;69.05
39487;BME280;25173;50.430;18.926;2023-02-14T00:40:05;100026.88;;;7.23;69.37
39487;BME280;25173;50.430;18.926;2023-02-14T00:43:06;100023.94;;;7.24;69.19
39487;BME280;25173;50.430;18.926;2023-02-14T00:46:06;100031.66;;;7.21;69.46
39487;BME280;25173;50.430;18.926;2023-02-14T00:49:07;100028.94;;;7.21;69.48
39487;BME280;25173;50.430;18.926;2023-02-14T00:52:08;100029.97;;;7.26;69.52
39487;BME280;25173;50.430;18.926;2023-02-14T00:55:08;100030.59;;;7.22;69.66
39487;BME280;25173;50.430;18.926;2023-02-14T00:58:09;100028.72;;;7.22;69.69
39487;BME280;25173;50.430;18.926;2023-02-14T01:01:11;100024.56;;;7.26;69.50
39487;BME280;25173;50.430;18.926;2023-02-14T01:04:11;100026.88;;;7.29;69.61
39487;BME280;25173;50.430;18.926;2023-02-14T01:07:12;100016.84;;;7.36;69.67
39487;BME280;25173;50.430;18.926;2023-02-14T01:10:12;100013.31;;;7.43;69.50
39487;BME280;25173;50.430;18.926;2023-02-14T01:13:13;100016.84;;;7.43;69.42
39487;BME280;25173;50.430;18.926;2023-02-14T01:16:17;100021.69;;;7.48;69.21
39487;BME280;25173;50.430;18.926;2023-02-14T01:19:18;100018.13;;;7.47;69.13
39487;BME280;25173;50.430;18.926;2023-02-14T01:22:18;100013.53;;;7.48;69.22
39487;BME280;25173;50.430;18.926;2023-02-14T01:25:19;100010.00;;;7.47;69.12
39487;BME280;25173;50.430;18.926;2023-02-14T01:28:20;100007.69;;;7.51;69.27
39487;BME280;25173;50.430;18.926;2023-02-14T01:31:26;99995.16;;;7.50;69.04
39487;BME280;25173;50.430;18.926;2023-02-14T01:34:30;100005.41;;;7.48;69.09
39487;BME280;25173;50.430;18.926;2023-02-14T01:37:30;100002.91;;;7.46;68.88
39487;BME280;25173;50.430;18.926;2023-02-14T01:40:31;100006.84;;;7.44;68.93
39487;BME280;25173;50.430;18.926;2023-02-14T01:47:09;100007.69;;;7.51;68.82
39487;BME280;25173;50.430;18.926;2023-02-14T01:50:20;100003.72;;;7.53;68.75
39487;BME280;25173;50.430;18.926;2023-02-14T01:53:27;99988.91;;;7.49;68.74
39487;BME280;25173;50.430;18.926;2023-02-14T01:56:35;99996.84;;;7.44;68.81
39487;BME280;25173;50.430;18.926;2023-02-14T01:59:41;99991.03;;;7.40;68.82
39487;BME280;25173;50.430;18.926;2023-02-14T02:02:43;99993.09;;;7.38;68.86
39487;BME280;25173;50.430;18.926;2023-02-14T02:05:47;99997.25;;;7.28;68.78
39487;BME280;25173;50.430;18.926;2023-02-14T02:08:58;99988.72;;;7.18;68.86
39487;BME280;25173;50.430;18.926;2023-02-14T02:12:03;99986.22;;;7.10;69.17
39487;BME280;25173;50.430;18.926;2023-02-14T02:15:04;99985.13;;;7.04;69.30
39487;BME280;25173;50.430;18.926;2023-02-14T02:24:47;99988.47;;;6.99;69.44
39487;BME280;25173;50.430;18.926;2023-02-14T02:41:17;99997.22;;;6.95;69.71
39487;BME280;25173;50.430;18.926;2023-02-14T02:44:16;99993.50;;;6.96;69.62
39487;BME280;25173;50.430;18.926;2023-02-14T02:50:41;99986.00;;;7.11;69.38
39487;BME280;25173;50.430;18.926;2023-02-14T02:54:11;99999.94;;;7.08;69.33
39487;BME280;25173;50.430;18.926;2023-02-14T02:57:17;99997.69;;;7.18;69.43
39487;BME280;25173;50.430;18.926;2023-02-14T03:00:22;99986.63;;;7.20;68.87
39487;BME280;25173;50.430;18.926;2023-02-14T03:03:25;99978.91;;;7.17;68.94
39487;BME280;25173;50.430;18.926;2023-02-14T03:06:46;99977.25;;;7.16;68.87
39487;BME280;25173;50.430;18.926;2023-02-14T03:09:49;99980.78;;;7.16;68.67
39487;BME280;25173;50.430;18.926;2023-02-14T03:13:17;99987.44;;;7.20;68.61
39487;BME280;25173;50.430;18.926;2023-02-14T03:16:34;99983.50;;;7.16;68.55
39487;BME280;25173;50.430;18.926;2023-02-14T03:23:30;99987.88;;;7.17;68.24
39487;BME280;25173;50.430;18.926;2023-02-14T03:26:46;99987.25;;;7.15;68.60
39487;BME280;25173;50.430;18.926;2023-02-14T03:29:56;99983.50;;;7.16;68.60
39487;BME280;25173;50.430;18.926;2023-02-14T03:33:07;99978.91;;;7.17;68.46
39487;BME280;25173;50.430;18.926;2023-02-14T03:36:16;99981.44;;;7.18;68.44
39487;BME280;25173;50.430;18.926;2023-02-14T03:39:25;99989.75;;;7.17;68.44
39487;BME280;25173;50.430;18.926;2023-02-14T03:42:31;99988.50;;;7.19;68.44
39487;BME280;25173;50.430;18.926;2023-02-14T03:45:39;99990.78;;;7.22;68.40
39487;BME280;25173;50.430;18.926;2023-02-14T03:48:43;99987.25;;;7.28;68.16
39487;BME280;25173;50.430;18.926;2023-02-14T03:51:47;99990.78;;;7.29;67.99
39487;BME280;25173;50.430;18.926;2023-02-14T03:54:51;100000.16;;;7.26;67.90
39487;BME280;25173;50.430;18.926;2023-02-14T04:01:03;99991.00;;;7.27;67.66
39487;BME280;25173;50.430;18.926;2023-02-14T04:04:06;99988.91;;;7.23;67.67
39487;BME280;25173;50.430;18.926;2023-02-14T04:07:13;99989.75;;;7.23;67.68
39487;BME280;25173;50.430;18.926;2023-02-14T04:10:15;99996.84;;;7.24;67.64
39487;BME280;25173;50.430;18.926;2023-02-14T04:13:16;99997.69;;;7.18;67.39
39487;BME280;25173;50.430;18.926;2023-02-14T04:16:17;99995.19;;;7.23;67.51
39487;BME280;25173;50.430;18.926;2023-02-14T04:19:17;100003.94;;;7.25;67.43
39487;BME280;25173;50.430;18.926;2023-02-14T04:22:23;99993.06;;;7.19;67.30
39487;BME280;25173;50.430;18.926;2023-02-14T04:25:24;99987.03;;;7.17;67.19
39487;BME280;25173;50.430;18.926;2023-02-14T04:28:25;99989.97;;;7.15;67.29
39487;BME280;25173;50.430;18.926;2023-02-14T04:31:25;99997.69;;;7.18;67.28
39487;BME280;25173;50.430;18.926;2023-02-14T04:34:26;99983.50;;;7.16;67.07
39487;BME280;25173;50.430;18.926;2023-02-14T04:37:26;99988.91;;;7.16;67.12
39487;BME280;25173;50.430;18.926;2023-02-14T04:40:27;99991.81;;;7.15;67.05
39487;BME280;25173;50.430;18.926;2023-02-14T04:43:28;99995.38;;;7.15;66.95
39487;BME280;25173;50.430;18.926;2023-02-14T04:46:29;99989.31;;;7.20;66.92
39487;BME280;25173;50.430;18.926;2023-02-14T04:49:30;99983.91;;;7.20;66.70
39487;BME280;25173;50.430;18.926;2023-02-14T04:52:30;99994.34;;;7.16;66.74
39487;BME280;25173;50.430;18.926;2023-02-14T04:55:31;99990.59;;;7.17;66.66
39487;BME280;25173;50.430;18.926;2023-02-14T04:58:32;99995.19;;;7.17;66.58
39487;BME280;25173;50.430;18.926;2023-02-14T05:01:32;99998.50;;;7.19;66.56
39487;BME280;25173;50.430;18.926;2023-02-14T05:04:33;99998.50;;;7.19;66.67
39487;BME280;25173;50.430;18.926;2023-02-14T05:07:34;99999.31;;;7.19;66.57
39487;BME280;25173;50.430;18.926;2023-02-14T05:10:34;100006.84;;;7.24;66.54
39487;BME280;25173;50.430;18.926;2023-02-14T05:13:35;100003.50;;;7.28;66.61
39487;BME280;25173;50.430;18.926;2023-02-14T05:16:35;100004.78;;;7.32;66.47
39487;BME280;25173;50.430;18.926;2023-02-14T05:19:37;100011.03;;;7.39;66.44
39487;BME280;25173;50.430;18.926;2023-02-14T05:22:38;100009.16;;;7.47;66.35
39487;BME280;25173;50.430;18.926;2023-02-14T05:25:39;100008.53;;;7.51;66.24
39487;BME280;25173;50.430;18.926;2023-02-14T05:28:40;100010.19;;;7.59;66.16
39487;BME280;25173;50.430;18.926;2023-02-14T05:31:52;100009.34;;;7.65;65.74
39487;BME280;25173;50.430;18.926;2023-02-14T05:34:56;100012.25;;;7.63;66.22
39487;BME280;25173;50.430;18.926;2023-02-14T05:37:57;100016.44;;;7.66;65.94
39487;BME280;25173;50.430;18.926;2023-02-14T05:40:58;100010.63;;;7.69;65.93
39487;BME280;25173;50.430;18.926;2023-02-14T05:43:58;100021.84;;;7.72;65.62
39487;BME280;25173;50.430;18.926;2023-02-14T05:46:59;100014.75;;;7.71;65.63
39487;BME280;25173;50.430;18.926;2023-02-14T05:49:59;100015.84;;;7.70;65.56
39487;BME280;25173;50.430;18.926;2023-02-14T05:53:00;100026.44;;;7.65;65.63
39487;BME280;25173;50.430;18.926;2023-02-14T05:56:01;100038.13;;;7.66;65.53
39487;BME280;25173;50.430;18.926;2023-02-14T05:59:01;100033.34;;;7.68;65.72
39487;BME280;25173;50.430;18.926;2023-02-14T06:02:02;100038.34;;;7.64;65.26
39487;BME280;25173;50.430;18.926;2023-02-14T06:05:03;100043.16;;;7.62;65.60
39487;BME280;25173;50.430;18.926;2023-02-14T06:08:03;100043.34;;;7.67;65.57
39487;BME280;25173;50.430;18.926;2023-02-14T06:11:04;100049.63;;;7.74;65.61
39487;BME280;25173;50.430;18.926;2023-02-14T06:14:05;100047.34;;;7.78;65.36
39487;BME280;25173;50.430;18.926;2023-02-14T06:17:05;100049.81;;;7.73;65.35
39487;BME280;25173;50.430;18.926;2023-02-14T06:20:07;100041.88;;;7.65;65.25
39487;BME280;25173;50.430;18.926;2023-02-14T06:23:11;100046.47;;;7.58;65.34
39487;BME280;25173;50.430;18.926;2023-02-14T06:26:12;100057.13;;;7.59;65.27
39487;BME280;25173;50.430;18.926;2023-02-14T06:29:15;100050.03;;;7.52;65.29
39487;BME280;25173;50.430;18.926;2023-02-14T06:32:16;100052.75;;;7.52;65.57
39487;BME280;25173;50.430;18.926;2023-02-14T06:35:17;100054.81;;;7.56;65.52
39487;BME280;25173;50.430;18.926;2023-02-14T06:38:17;100061.06;;;7.63;65.48
39487;BME280;25173;50.430;18.926;2023-02-14T06:41:18;100065.06;;;7.74;65.44
39487;BME280;25173;50.430;18.926;2023-02-14T06:44:18;100062.75;;;7.77;65.10
39487;BME280;25173;50.430;18.926;2023-02-14T06:47:19;100059.41;;;7.82;65.31
39487;BME280;25173;50.430;18.926;2023-02-14T06:50:19;100054.16;;;7.94;65.26
39487;BME280;25173;50.430;18.926;2023-02-14T06:53:20;100048.97;;;8.05;65.16
39487;BME280;25173;50.430;18.926;2023-02-14T06:56:21;100065.63;;;8.15;64.89
39487;BME280;25173;50.430;18.926;2023-02-14T06:59:22;100060.59;;;8.26;64.72
39487;BME280;25173;50.430;18.926;2023-02-14T07:02:22;100066.66;;;8.34;64.63
39487;BME280;25173;50.430;18.926;2023-02-14T07:05:23;100074.59;;;8.36;64.40
39487;BME280;25173;50.430;18.926;2023-02-14T07:08:23;100068.09;;;8.30;64.41
39487;BME280;25173;50.430;18.926;2023-02-14T07:11:24;100065.38;;;8.30;64.43
39487;BME280;25173;50.430;18.926;2023-02-14T07:14:25;100072.31;;;8.33;64.40
39487;BME280;25173;50.430;18.926;2023-02-14T07:17:26;100068.97;;;8.31;64.40
39487;BME280;25173;50.430;18.926;2023-02-14T07:20:27;100069.19;;;8.36;64.39
39487;BME280;25173;50.430;18.926;2023-02-14T07:23:28;100066.88;;;8.33;64.30
39487;BME280;25173;50.430;18.926;2023-02-14T07:26:29;100071.91;;;8.36;64.21
39487;BME280;25173;50.430;18.926;2023-02-14T07:29:29;100063.06;;;8.47;64.38
39487;BME280;25173;50.430;18.926;2023-02-14T07:32:30;100067.25;;;8.49;63.84
39487;BME280;25173;50.430;18.926;2023-02-14T07:35:30;100072.47;;;8.51;64.04
39487;BME280;25173;50.430;18.926;2023-02-14T07:38:32;100075.59;;;8.48;63.70
39487;BME280;25173;50.430;18.926;2023-02-14T07:41:32;100070.19;;;8.48;63.81
39487;BME280;25173;50.430;18.926;2023-02-14T07:44:33;100072.03;;;8.54;63.75
39487;BME280;25173;50.430;18.926;2023-02-14T07:47:34;100067.03;;;8.57;63.58
39487;BME280;25173;50.430;18.926;2023-02-14T07:50:34;100064.72;;;8.54;63.47
39487;BME280;25173;50.430;18.926;2023-02-14T07:53:35;100065.13;;;8.58;63.57
39487;BME280;25173;50.430;18.926;2023-02-14T07:56:35;100067.22;;;8.56;63.23
39487;BME280;25173;50.430;18.926;2023-02-14T07:59:36;100071.84;;;8.49;63.29
39487;BME280;25173;50.430;18.926;2023-02-14T08:02:37;100074.16;;;8.52;63.63
39487;BME280;25173;50.430;18.926;2023-02-14T08:05:37;100073.72;;;8.48;63.17
39487;BME280;25173;50.430;18.926;2023-02-14T08:08:38;100077.31;;;8.42;63.26
39487;BME280;25173;50.430;18.926;2023-02-14T08:11:39;100079.00;;;8.37;63.44
39487;BME280;25173;50.430;18.926;2023-02-14T08:14:58;100080.25;;;8.34;63.80
39487;BME280;25173;50.430;18.926;2023-02-14T08:18:20;100072.94;;;8.22;63.30
39487;BME280;25173;50.430;18.926;2023-02-14T08:21:22;100080.88;;;8.03;63.65
39487;BME280;25173;50.430;18.926;2023-02-14T08:24:22;100099.69;;;8.05;63.71
39487;BME280;25173;50.430;18.926;2023-02-14T08:27:23;100086.34;;;7.90;63.87
39487;BME280;25173;50.430;18.926;2023-02-14T08:30:25;100087.16;;;7.91;64.34
39487;BME280;25173;50.430;18.926;2023-02-14T08:33:25;100086.97;;;7.92;63.97
39487;BME280;25173;50.430;18.926;2023-02-14T08:36:26;100081.94;;;7.89;64.13
39487;BME280;25173;50.430;18.926;2023-02-14T08:39:26;100084.47;;;7.91;64.32
39487;BME280;25173;50.430;18.926;2023-02-14T08:42:27;100092.41;;;7.92;64.19
39487;BME280;25173;50.430;18.926;2023-02-14T08:45:29;100096.53;;;8.01;64.68
39487;BME280;25173;50.430;18.926;2023-02-14T08:48:29;100097.81;;;8.05;64.33
39487;BME280;25173;50.430;18.926;2023-02-14T08:51:30;100103.22;;;8.18;64.45
39487;BME280;25173;50.430;18.926;2023-02-14T08:54:30;100105.72;;;8.27;64.21
39487;BME280;25173;50.430;18.926;2023-02-14T08:57:31;100106.09;;;8.30;64.00
39487;BME280;25173;50.430;18.926;2023-02-14T09:00:32;100104.03;;;8.39;63.92
39487;BME280;25173;50.430;18.926;2023-02-14T09:03:37;100101.94;;;8.41;63.91
39487;BME280;25173;50.430;18.926;2023-02-14T09:06:38;100101.53;;;8.44;63.61
39487;BME280;25173;50.430;18.926;2023-02-14T09:09:38;100106.53;;;8.40;63.83
39487;BME280;25173;50.430;18.926;2023-02-14T09:12:40;100112.81;;;8.28;63.85
39487;BME280;25173;50.430;18.926;2023-02-14T09:15:41;100113.22;;;8.25;64.03
39487;BME280;25173;50.430;18.926;2023-02-14T09:18:43;100118.25;;;8.41;64.21
39487;BME280;25173;50.430;18.926;2023-02-14T09:21:44;100111.13;;;8.46;63.79
39487;BME280;25173;50.430;18.926;2023-02-14T09:24:44;100106.91;;;8.64;64.16
39487;BME280;25173;50.430;18.926;2023-02-14T09:27:45;100110.84;;;8.74;63.76
39487;BME280;25173;50.430;18.926;2023-02-14T09:30:45;100106.91;;;8.64;63.32
39487;BME280;25173;50.430;18.926;2023-02-14T09:33:47;100106.06;;;8.63;63.65
39487;BME280;25173;50.430;18.926;2023-02-14T09:36:49;100114.22;;;8.63;63.39
39487;BME280;25173;50.430;18.926;2023-02-14T09:40:12;100121.28;;;8.77;63.20
39487;BME280;25173;50.430;18.926;2023-02-14T09:43:41;100112.66;;;8.87;63.01
39487;BME280;25173;50.430;18.926;2023-02-14T09:46:49;100113.94;;;8.84;63.11
39487;BME280;25173;50.430;18.926;2023-02-14T09:49:52;100111.84;;;8.86;63.07
39487;BME280;25173;50.430;18.926;2023-02-14T09:52:59;100108.22;;;8.99;63.30
39487;BME280;25173;50.430;18.926;2023-02-14T09:56:22;100120.88;;;9.25;62.76
39487;BME280;25173;50.430;18.926;2023-02-14T10:00:15;100117.84;;;9.40;62.42
39487;BME280;25173;50.430;18.926;2023-02-14T10:03:15;100111.75;;;9.44;60.97
39487;BME280;25173;50.430;18.926;2023-02-14T10:06:36;100117.28;;;9.31;61.49
39487;BME280;25173;50.430;18.926;2023-02-14T10:12:56;100112.47;;;8.82;61.67
39487;BME280;25173;50.430;18.926;2023-02-14T10:19:34;100120.69;;;8.62;61.79
39487;BME280;25173;50.430;18.926;2023-02-14T10:22:42;100114.03;;;8.58;62.57
39487;BME280;25173;50.430;18.926;2023-02-14T10:25:48;100116.50;;;8.60;62.41
39487;BME280;25173;50.430;18.926;2023-02-14T10:28:54;100116.94;;;8.63;62.45
39487;BME280;25173;50.430;18.926;2023-02-14T10:31:58;100117.13;;;8.62;62.25
39487;BME280;25173;50.430;18.926;2023-02-14T10:35:02;100121.97;;;8.53;62.16
39487;BME280;25173;50.430;18.926;2023-02-14T10:45:16;100105.72;;;8.33;62.64
39487;BME280;25173;50.430;18.926;2023-02-14T10:51:56;100109.81;;;8.62;62.41
39487;BME280;25173;50.430;18.926;2023-02-14T10:55:14;100111.25;;;8.71;62.18
39487;BME280;25173;50.430;18.926;2023-02-14T10:58:20;100096.81;;;8.77;62.33
39487;BME280;25173;50.430;18.926;2023-02-14T11:01:22;100092.63;;;8.81;61.79
39487;BME280;25173;50.430;18.926;2023-02-14T11:04:23;100095.50;;;8.93;61.31
39487;BME280;25173;50.430;18.926;2023-02-14T11:07:24;100083.38;;;8.95;61.07
39487;BME280;25173;50.430;18.926;2023-02-14T11:10:28;100077.94;;;8.95;61.10
39487;BME280;25173;50.430;18.926;2023-02-14T11:13:36;100090.28;;;8.91;60.80
39487;BME280;25173;50.430;18.926;2023-02-14T11:16:37;100087.22;;;8.81;60.94
39487;BME280;25173;50.430;18.926;2023-02-14T11:19:38;100083.44;;;8.76;60.99
39487;BME280;25173;50.430;18.926;2023-02-14T11:22:38;100077.16;;;8.75;61.31
39487;BME280;25173;50.430;18.926;2023-02-14T11:25:39;100077.38;;;8.80;61.00
39487;BME280;25173;50.430;18.926;2023-02-14T11:28:50;100075.91;;;8.78;61.22
39487;BME280;25173;50.430;18.926;2023-02-14T11:31:52;100068.78;;;8.83;61.08
39487;BME280;25173;50.430;18.926;2023-02-14T11:34:56;100068.13;;;8.94;60.92
39487;BME280;25173;50.430;18.926;2023-02-14T11:38:08;100067.03;;;9.02;60.37
39487;BME280;25173;50.430;18.926;2023-02-14T11:41:21;100065.34;;;9.01;60.58
39487;BME280;25173;50.430;18.926;2023-02-14T11:44:25;100068.25;;;9.06;60.63
39487;BME280;25173;50.430;18.926;2023-02-14T11:47:29;100054.88;;;9.05;60.14
39487;BME280;25173;50.430;18.926;2023-02-14T11:50:30;100053.25;;;8.97;59.79
39487;BME280;25173;50.430;18.926;2023-02-14T11:53:48;100058.69;;;8.97;59.81
39487;BME280;25173;50.430;18.926;2023-02-14T11:56:55;100051.16;;;8.99;59.76
39487;BME280;25173;50.430;18.926;2023-02-14T11:59:58;100052.19;;;8.98;59.96
39487;BME280;25173;50.430;18.926;2023-02-14T12:03:04;100060.84;;;8.88;59.73
39487;BME280;25173;50.430;18.926;2023-02-14T12:06:05;100051.88;;;8.81;60.27
39487;BME280;25173;50.430;18.926;2023-02-14T12:12:22;100047.13;;;8.70;60.31
39487;BME280;25173;50.430;18.926;2023-02-14T12:15:31;100041.91;;;8.62;60.50
39487;BME280;25173;50.430;18.926;2023-02-14T12:19:09;100034.56;;;8.69;60.25
39487;BME280;25173;50.430;18.926;2023-02-14T12:22:05;100039.53;;;8.85;60.56
39487;BME280;25173;50.430;18.926;2023-02-14T12:28:12;100026.84;;;9.11;59.95
39487;BME280;25173;50.430;18.926;2023-02-14T12:31:14;100025.97;;;9.17;59.87
39487;BME280;25173;50.430;18.926;2023-02-14T12:34:16;100027.59;;;9.24;59.79
39487;BME280;25173;50.430;18.926;2023-02-14T12:37:39;100022.97;;;9.25;59.65
39487;BME280;25173;50.430;18.926;2023-02-14T12:41:07;100022.16;;;9.24;59.68
39487;BME280;25173;50.430;18.926;2023-02-14T12:54:31;100004.72;;;9.01;59.68
39487;BME280;25173;50.430;18.926;2023-02-14T13:01:00;100009.38;;;8.93;59.88
39487;BME280;25173;50.430;18.926;2023-02-14T13:04:20;100003.47;;;9.03;59.68
39487;BME280;25173;50.430;18.926;2023-02-14T13:10:58;99999.91;;;9.03;59.43
39487;BME280;25173;50.430;18.926;2023-02-14T13:15:10;99998.09;;;8.90;59.03
39487;BME280;25173;50.430;18.926;2023-02-14T13:21:22;99994.75;;;9.19;59.47
39487;BME280;25173;50.430;18.926;2023-02-14T13:24:27;99998.25;;;9.33;59.09
39487;BME280;25173;50.430;18.926;2023-02-14T13:27:31;99985.44;;;9.40;59.06
39487;BME280;25173;50.430;18.926;2023-02-14T13:30:34;99993.59;;;9.40;58.45
39487;BME280;25173;50.430;18.926;2023-02-14T13:33:38;99986.06;;;9.35;58.69
39487;BME280;25173;50.430;18.926;2023-02-14T13:36:42;99992.41;;;9.29;58.57
39487;BME280;25173;50.430;18.926;2023-02-14T13:39:54;99994.50;;;9.27;58.56
39487;BME280;25173;50.430;18.926;2023-02-14T13:42:57;99989.13;;;9.21;58.67
39487;BME280;25173;50.430;18.926;2023-02-14T13:45:58;99987.19;;;9.28;58.97
39487;BME280;25173;50.430;18.926;2023-02-14T13:52:01;99983.47;;;9.47;58.82
39487;BME280;25173;50.430;18.926;2023-02-14T13:55:06;99990.53;;;9.55;57.94
39487;BME280;25173;50.430;18.926;2023-02-14T14:01:41;99990.81;;;9.47;57.81
39487;BME280;25173;50.430;18.926;2023-02-14T14:04:47;99986.63;;;9.44;58.30
39487;BME280;25173;50.430;18.926;2023-02-14T14:17:23;99987.38;;;9.33;58.22
39487;BME280;25173;50.430;18.926;2023-02-14T14:23:29;99989.63;;;9.36;58.49
39487;BME280;25173;50.430;18.926;2023-02-14T14:26:36;100000.06;;;9.39;58.05
39487;BME280;25173;50.430;18.926;2023-02-14T14:29:43;99988.63;;;9.30;58.12
39487;BME280;25173;50.430;18.926;2023-02-14T14:32:45;99997.56;;;9.38;58.28
39487;BME280;25173;50.430;18.926;2023-02-14T14:36:06;99991.41;;;9.24;57.78
39487;BME280;25173;50.430;18.926;2023-02-14T14:39:09;99996.31;;;9.09;58.00
39487;BME280;25173;50.430;18.926;2023-02-14T14:42:14;99985.09;;;8.99;58.13
39487;BME280;25173;50.430;18.926;2023-02-14T14:45:20;99990.09;;;9.02;58.28
39487;BME280;25173;50.430;18.926;2023-02-14T14:51:33;99989.63;;;9.11;58.27
39487;BME280;25173;50.430;18.926;2023-02-14T14:54:35;99986.91;;;9.11;58.39
39487;BME280;25173;50.430;18.926;2023-02-14T14:57:36;99981.63;;;9.16;58.12
39487;BME280;25173;50.430;18.926;2023-02-14T15:00:38;99979.69;;;9.23;58.36
39487;BME280;25173;50.430;18.926;2023-02-14T15:03:41;99982.00;;;9.20;57.67
39487;BME280;25173;50.430;18.926;2023-02-14T15:06:42;99979.06;;;9.21;57.97
39487;BME280;25173;50.430;18.926;2023-02-14T15:09:43;99979.03;;;9.28;58.02
39487;BME280;25173;50.430;18.926;2023-02-14T15:12:44;99977.34;;;9.27;57.79
39487;BME280;25173;50.430;18.926;2023-02-14T15:16:03;99972.59;;;9.22;58.15
39487;BME280;25173;50.430;18.926;2023-02-14T15:19:15;99975.97;;;9.18;57.72
39487;BME280;25173;50.430;18.926;2023-02-14T15:22:28;99983.63;;;9.03;57.73
39487;BME280;25173;50.430;18.926;2023-02-14T15:25:31;99976.59;;;8.88;57.92
39487;BME280;25173;50.430;18.926;2023-02-14T15:28:34;99984.81;;;8.75;58.05
39487;BME280;25173;50.430;18.926;2023-02-14T15:31:39;99983.97;;;8.75;58.29
39487;BME280;25173;50.430;18.926;2023-02-14T15:34:40;99989.81;;;8.78;58.27
39487;BME280;25173;50.430;18.926;2023-02-14T15:37:44;99985.38;;;8.84;58.15
39487;BME280;25173;50.430;18.926;2023-02-14T15:40:46;99985.81;;;8.87;58.23
39487;BME280;25173;50.430;18.926;2023-02-14T15:43:51;99992.25;;;8.93;58.25
39487;BME280;25173;50.430;18.926;2023-02-14T15:46:59;99993.44;;;8.97;58.31
39487;BME280;25173;50.430;18.926;2023-02-14T15:50:01;100002.19;;;9.06;58.15
39487;BME280;25173;50.430;18.926;2023-02-14T15:53:04;99996.75;;;9.06;58.21
39487;BME280;25173;50.430;18.926;2023-02-14T15:56:35;100002.13;;;9.12;57.72
39487;BME280;25173;50.430;18.926;2023-02-14T15:59:41;100003.06;;;9.00;57.84
39487;BME280;25173;50.430;18.926;2023-02-14T16:02:42;100005.16;;;8.98;58.17
39487;BME280;25173;50.430;18.926;2023-02-14T16:05:46;100010.16;;;9.01;58.00
39487;BME280;25173;50.430;18.926;2023-02-14T16:08:53;100010.38;;;8.99;58.12
39487;BME280;25173;50.430;18.926;2023-02-14T16:11:54;100011.38;;;9.05;58.34
39487;BME280;25173;50.430;18.926;2023-02-14T16:15:16;100014.31;;;9.10;58.14
39487;BME280;25173;50.430;18.926;2023-02-14T16:21:54;100019.81;;;9.28;57.93
39487;BME280;25173;50.430;18.926;2023-02-14T16:24:55;100015.63;;;9.32;58.12
39487;BME280;25173;50.430;18.926;2023-02-14T16:27:55;100015.56;;;9.39;58.07
39487;BME280;25173;50.430;18.926;2023-02-14T16:30:57;100014.88;;;9.43;58.03
39487;BME280;25173;50.430;18.926;2023-02-14T16:33:59;100022.41;;;9.48;57.88
39487;BME280;25173;50.430;18.926;2023-02-14T16:37:08;100023.59;;;9.52;57.61
39487;BME280;25173;50.430;18.926;2023-02-14T16:40:21;100027.06;;;9.34;57.50
39487;BME280;25173;50.430;18.926;2023-02-14T16:43:23;100023.81;;;9.25;57.91
39487;BME280;25173;50.430;18.926;2023-02-14T16:46:31;100026.06;;;9.28;57.96
39487;BME280;25173;50.430;18.926;2023-02-14T16:49:34;100025.88;;;9.30;58.09
39487;BME280;25173;50.430;18.926;2023-02-14T16:52:35;100025.38;;;9.40;58.11
39487;BME280;25173;50.430;18.926;2023-02-14T16:55:35;100024.88;;;9.49;57.95
39487;BME280;25173;50.430;18.926;2023-02-14T16:58:36;100030.66;;;9.59;57.85
39487;BME280;25173;50.430;18.926;2023-02-14T17:01:37;100028.50;;;9.68;57.71
39487;BME280;25173;50.430;18.926;2023-02-14T17:04:38;100037.44;;;9.75;57.67
39487;BME280;25173;50.430;18.926;2023-02-14T17:07:41;100037.22;;;9.77;57.51
39487;BME280;25173;50.430;18.926;2023-02-14T17:10:45;100036.38;;;9.76;57.45
39487;BME280;25173;50.430;18.926;2023-02-14T17:13:47;100036.38;;;9.76;57.63
39487;BME280;25173;50.430;18.926;2023-02-14T17:16:49;100033.13;;;9.86;57.62
39487;BME280;25173;50.430;18.926;2023-02-14T17:19:50;100030.59;;;9.91;57.48
39487;BME280;25173;50.430;18.926;2023-02-14T17:22:50;100032.25;;;9.92;57.24
39487;BME280;25173;50.430;18.926;2023-02-14T17:25:51;100033.75;;;9.88;56.95
39487;BME280;25173;50.430;18.926;2023-02-14T17:28:51;100037.66;;;9.73;56.89
39487;BME280;25173;50.430;18.926;2023-02-14T17:31:52;100038.81;;;9.59;57.02
39487;BME280;25173;50.430;18.926;2023-02-14T17:34:52;100034.28;;;9.53;57.10
39487;BME280;25173;50.430;18.926;2023-02-14T17:37:53;100034.28;;;9.53;57.35
39487;BME280;25173;50.430;18.926;2023-02-14T17:40:53;100038.03;;;9.52;57.21
39487;BME280;25173;50.430;18.926;2023-02-14T17:43:54;100045.78;;;9.55;57.23
39487;BME280;25173;50.430;18.926;2023-02-14T17:46:59;100037.41;;;9.50;57.07
39487;BME280;25173;50.430;18.926;2023-02-14T17:50:00;100039.56;;;9.48;57.23